sensor_id;sensor_type;location;lat;lon;timestamp;pressure;altitude;pressure_sealevel;temperature;humidity
55912;BME280;41823;45.534;-73.332;2022-07-23T00:00:29;100330.39;;;30.39;26.73
55912;BME280;41823;45.534;-73.332;2022-07-23T00:02:57;100333.96;;;30.66;27.16
55912;BME280;41823;45.534;-73.332;2022-07-23T00:05:24;100335.35;;;30.52;26.79
55912;BME280;41823;45.534;-73.332;2022-07-23T00:07:53;100341.20;;;30.70;27.01
55912;BME280;41823;45.534;-73.332;2022-07-23T00:10:20;100338.03;;;30.82;26.33
55912;BME280;41823;45.534;-73.332;2022-07-23T00:12:48;100336.53;;;30.34;26.97
55912;BME280;41823;45.534;-73.332;2022-07-23T00:15:17;100331.19;;;30.48;26.62
55912;BME280;41823;45.534;-73.332;2022-07-23T00:17:45;100332.50;;;30.65;26.03
55912;BME280;41823;45.534;-73.332;2022-07-23T00:20:13;100335.00;;;30.94;26.84
55912;BME280;41823;45.534;-73.332;2022-07-23T00:22:47;100331.63;;;31.14;26.22
55912;BME280;41823;45.534;-73.332;2022-07-23T00:25:15;100336.01;;;31.31;26.08
55912;BME280;41823;45.534;-73.332;2022-07-23T00:27:43;100344.37;;;30.59;26.83
55912;BME280;41823;45.534;-73.332;2022-07-23T00:30:12;100343.75;;;31.10;26.85
55912;BME280;41823;45.534;-73.332;2022-07-23T00:32:48;100348.84;;;31.12;26.43
55912;BME280;41823;45.534;-73.332;2022-07-23T00:35:18;100345.57;;;31.48;26.72
55912;BME280;41823;45.534;-73.332;2022-07-23T00:37:47;100347.14;;;30.86;27.14
55912;BME280;41823;45.534;-73.332;2022-07-23T00:40:16;100352.27;;;31.32;27.20
55912;BME280;41823;45.534;-73.332;2022-07-23T00:42:44;100354.59;;;31.35;26.59
55912;BME280;41823;45.534;-73.332;2022-07-23T00:45:12;100362.65;;;30.97;26.94
55912;BME280;41823;45.534;-73.332;2022-07-23T00:47:40;100365.64;;;30.87;27.20
55912;BME280;41823;45.534;-73.332;2022-07-23T03:48:40;100456.28;;;27.72;35.01
55912;BME280;41823;45.534;-73.332;2022-07-23T03:51:07;100458.07;;;26.73;33.72
55912;BME280;41823;45.534;-73.332;2022-07-23T03:53:33;100458.87;;;27.10;32.74
55912;BME280;41823;45.534;-73.332;2022-07-23T03:56:00;100457.07;;;27.20;31.43
55912;BME280;41823;45.534;-73.332;2022-07-23T03:58:27;100460.53;;;27.95;31.23
55912;BME280;41823;45.534;-73.332;2022-07-23T04:00:54;100463.83;;;27.74;30.62
55912;BME280;41823;45.534;-73.332;2022-07-23T04:03:21;100465.61;;;28.30;29.88
55912;BME280;41823;45.534;-73.332;2022-07-23T04:05:48;100461.36;;;28.11;30.56
55912;BME280;41823;45.534;-73.332;2022-07-23T04:08:15;100457.92;;;28.42;29.86
55912;BME280;41823;45.534;-73.332;2022-07-23T04:10:42;100456.05;;;28.75;29.69
55912;BME280;41823;45.534;-73.332;2022-07-23T04:13:09;100463.56;;;28.61;29.72
55912;BME280;41823;45.534;-73.332;2022-07-23T04:15:35;100462.96;;;28.70;29.21
55912;BME280;41823;45.534;-73.332;2022-07-23T04:18:02;100459.15;;;28.62;29.34
55912;BME280;41823;45.534;-73.332;2022-07-23T04:20:29;100462.14;;;29.12;28.81
55912;BME280;41823;45.534;-73.332;2022-07-23T04:22:57;100460.50;;;29.92;28.74
55912;BME280;41823;45.534;-73.332;2022-07-23T04:25:25;100462.75;;;29.48;29.83
55912;BME280;41823;45.534;-73.332;2022-07-23T04:27:53;100461.23;;;29.48;30.28
55912;BME280;41823;45.534;-73.332;2022-07-23T04:30:21;100465.19;;;29.60;29.38
55912;BME280;41823;45.534;-73.332;2022-07-23T04:32:49;100468.36;;;30.02;29.75
55912;BME280;41823;45.534;-73.332;2022-07-23T04:35:17;100464.38;;;29.63;29.65
55912;BME280;41823;45.534;-73.332;2022-07-23T04:37:45;100464.34;;;30.09;29.11
55912;BME280;41823;45.534;-73.332;2022-07-23T04:40:13;100460.68;;;30.01;29.25
55912;BME280;41823;45.534;-73.332;2022-07-23T04:42:41;100459.26;;;30.39;29.12
55912;BME280;41823;45.534;-73.332;2022-07-23T04:45:09;100461.25;;;30.24;28.30
55912;BME280;41823;45.534;-73.332;2022-07-23T04:47:37;100463.53;;;29.87;29.15
55912;BME280;41823;45.534;-73.332;2022-07-23T04:50:05;100464.81;;;30.07;29.07
55912;BME280;41823;45.534;-73.332;2022-07-23T04:52:33;100467.28;;;30.32;28.71
55912;BME280;41823;45.534;-73.332;2022-07-23T04:55:01;100467.91;;;30.08;28.91
55912;BME280;41823;45.534;-73.332;2022-07-23T04:57:30;100465.52;;;29.91;28.79
55912;BME280;41823;45.534;-73.332;2022-07-23T04:59:58;100466.67;;;30.26;28.77
55912;BME280;41823;45.534;-73.332;2022-07-23T05:02:26;100473.37;;;29.62;29.02
55912;BME280;41823;45.534;-73.332;2022-07-23T05:04:54;100473.48;;;30.00;28.70
55912;BME280;41823;45.534;-73.332;2022-07-23T05:07:21;100468.20;;;30.27;28.99
55912;BME280;41823;45.534;-73.332;2022-07-23T05:09:49;100468.11;;;30.09;28.68
55912;BME280;41823;45.534;-73.332;2022-07-23T05:12:17;100468.54;;;29.75;28.42
55912;BME280;41823;45.534;-73.332;2022-07-23T05:14:45;100466.92;;;30.08;28.71
55912;BME280;41823;45.534;-73.332;2022-07-23T05:17:13;100469.76;;;30.00;28.66
55912;BME280;41823;45.534;-73.332;2022-07-23T05:19:41;100467.46;;;30.12;28.99
55912;BME280;41823;45.534;-73.332;2022-07-23T05:22:09;100467.25;;;30.04;28.57
55912;BME280;41823;45.534;-73.332;2022-07-23T05:24:37;100469.88;;;30.37;28.72
55912;BME280;41823;45.534;-73.332;2022-07-23T05:27:04;100470.33;;;30.15;28.11
55912;BME280;41823;45.534;-73.332;2022-07-23T05:29:33;100475.47;;;30.00;28.48
55912;BME280;41823;45.534;-73.332;2022-07-23T05:32:00;100475.29;;;30.32;28.64
55912;BME280;41823;45.534;-73.332;2022-07-23T05:34:29;100478.36;;;30.30;28.81
55912;BME280;41823;45.534;-73.332;2022-07-23T05:36:56;100481.52;;;30.18;29.09
55912;BME280;41823;45.534;-73.332;2022-07-23T05:39:24;100480.98;;;30.09;28.87
55912;BME280;41823;45.534;-73.332;2022-07-23T05:41:52;100480.78;;;30.26;28.20
55912;BME280;41823;45.534;-73.332;2022-07-23T05:44:19;100486.74;;;30.08;28.52
55912;BME280;41823;45.534;-73.332;2022-07-23T05:46:47;100488.10;;;30.57;28.54
55912;BME280;41823;45.534;-73.332;2022-07-23T05:49:15;100489.62;;;30.31;28.62
55912;BME280;41823;45.534;-73.332;2022-07-23T05:51:42;100492.54;;;29.91;29.10
55912;BME280;41823;45.534;-73.332;2022-07-23T05:54:10;100488.39;;;30.11;28.23
55912;BME280;41823;45.534;-73.332;2022-07-23T05:56:37;100491.74;;;30.48;29.02
55912;BME280;41823;45.534;-73.332;2022-07-23T05:59:05;100493.01;;;30.30;28.81
55912;BME280;41823;45.534;-73.332;2022-07-23T06:01:33;100493.21;;;30.43;28.53
55912;BME280;41823;45.534;-73.332;2022-07-23T06:04:01;100496.82;;;30.30;29.04
55912;BME280;41823;45.534;-73.332;2022-07-23T06:06:28;100501.26;;;30.49;28.58
55912;BME280;41823;45.534;-73.332;2022-07-23T06:08:56;100495.46;;;30.19;29.08
55912;BME280;41823;45.534;-73.332;2022-07-23T06:11:25;100499.52;;;30.57;28.76
55912;BME280;41823;45.534;-73.332;2022-07-23T06:13:53;100502.05;;;30.05;29.39
55912;BME280;41823;45.534;-73.332;2022-07-23T06:16:21;100504.30;;;30.31;28.98
55912;BME280;41823;45.534;-73.332;2022-07-23T06:18:50;100503.73;;;30.19;29.29
55912;BME280;41823;45.534;-73.332;2022-07-23T06:21:17;100505.99;;;30.39;28.73
55912;BME280;41823;45.534;-73.332;2022-07-23T06:23:46;100504.75;;;30.52;28.75
55912;BME280;41823;45.534;-73.332;2022-07-23T06:26:13;100505.96;;;30.43;29.17
55912;BME280;41823;45.534;-73.332;2022-07-23T06:28:41;100508.93;;;30.35;29.01
55912;BME280;41823;45.534;-73.332;2022-07-23T06:31:09;100512.77;;;30.13;29.19
55912;BME280;41823;45.534;-73.332;2022-07-23T06:33:36;100512.79;;;30.30;29.25
55912;BME280;41823;45.534;-73.332;2022-07-23T06:36:04;100517.75;;;30.41;28.67
55912;BME280;41823;45.534;-73.332;2022-07-23T06:38:32;100518.53;;;30.31;29.22
55912;BME280;41823;45.534;-73.332;2022-07-23T06:40:59;100520.84;;;30.11;28.70
55912;BME280;41823;45.534;-73.332;2022-07-23T06:43:28;100524.86;;;30.45;28.38
55912;BME280;41823;45.534;-73.332;2022-07-23T06:45:57;100526.36;;;30.59;28.42
55912;BME280;41823;45.534;-73.332;2022-07-23T06:48:25;100524.04;;;30.43;28.04
55912;BME280;41823;45.534;-73.332;2022-07-23T06:50:53;100526.80;;;30.65;28.31
55912;BME280;41823;45.534;-73.332;2022-07-23T06:53:21;100529.32;;;29.94;28.66
55912;BME280;41823;45.534;-73.332;2022-07-23T06:55:49;100523.92;;;30.44;28.01
55912;BME280;41823;45.534;-73.332;2022-07-23T06:58:17;100534.72;;;30.24;28.60
55912;BME280;41823;45.534;-73.332;2022-07-23T07:00:44;100537.60;;;30.39;28.44
55912;BME280;41823;45.534;-73.332;2022-07-23T07:03:12;100534.81;;;30.04;28.85
55912;BME280;41823;45.534;-73.332;2022-07-23T07:05:40;100519.97;;;30.56;27.88
55912;BME280;41823;45.534;-73.332;2022-07-23T07:08:08;100523.10;;;30.60;28.02
55912;BME280;41823;45.534;-73.332;2022-07-23T07:10:36;100524.25;;;30.58;27.55
55912;BME280;41823;45.534;-73.332;2022-07-23T07:13:04;100525.61;;;30.68;27.73
55912;BME280;41823;45.534;-73.332;2022-07-23T07:15:32;100527.67;;;30.90;27.84
55912;BME280;41823;45.534;-73.332;2022-07-23T07:18:00;100539.53;;;30.68;27.78
55912;BME280;41823;45.534;-73.332;2022-07-23T07:20:28;100534.39;;;30.54;28.02
55912;BME280;41823;45.534;-73.332;2022-07-23T07:22:56;100541.39;;;30.87;27.56
55912;BME280;41823;45.534;-73.332;2022-07-23T07:25:24;100538.49;;;30.67;27.77
55912;BME280;41823;45.534;-73.332;2022-07-23T07:27:51;100543.17;;;30.81;27.51
55912;BME280;41823;45.534;-73.332;2022-07-23T07:30:19;100542.02;;;30.55;27.93
55912;BME280;41823;45.534;-73.332;2022-07-23T07:32:47;100543.27;;;30.50;27.79
55912;BME280;41823;45.534;-73.332;2022-07-23T07:35:15;100543.08;;;30.49;27.77
55912;BME280;41823;45.534;-73.332;2022-07-23T07:37:43;100537.12;;;30.57;27.88
55912;BME280;41823;45.534;-73.332;2022-07-23T07:40:11;100531.39;;;30.49;28.05
55912;BME280;41823;45.534;-73.332;2022-07-23T07:42:45;100531.49;;;30.43;28.12
55912;BME280;41823;45.534;-73.332;2022-07-23T07:45:13;100530.91;;;31.21;27.70
55912;BME280;41823;45.534;-73.332;2022-07-23T07:47:42;100534.06;;;30.67;27.54
55912;BME280;41823;45.534;-73.332;2022-07-23T07:50:10;100532.66;;;30.70;27.77
55912;BME280;41823;45.534;-73.332;2022-07-23T07:52:38;100532.93;;;30.66;27.79
55912;BME280;41823;45.534;-73.332;2022-07-23T07:55:08;100534.59;;;30.43;28.09
55912;BME280;41823;45.534;-73.332;2022-07-23T07:57:37;100538.10;;;30.80;28.06
55912;BME280;41823;45.534;-73.332;2022-07-23T08:00:07;100537.10;;;30.40;28.05
55912;BME280;41823;45.534;-73.332;2022-07-23T08:02:41;100541.07;;;30.55;27.87
55912;BME280;41823;45.534;-73.332;2022-07-23T08:05:09;100548.29;;;30.25;27.93
55912;BME280;41823;45.534;-73.332;2022-07-23T08:07:38;100547.43;;;30.09;27.94
55912;BME280;41823;45.534;-73.332;2022-07-23T08:10:07;100549.62;;;29.80;27.61
55912;BME280;41823;45.534;-73.332;2022-07-23T08:12:40;100550.72;;;30.21;28.01
55912;BME280;41823;45.534;-73.332;2022-07-23T08:15:09;100544.88;;;29.75;27.85
55912;BME280;41823;45.534;-73.332;2022-07-23T08:17:37;100543.76;;;30.07;27.47
55912;BME280;41823;45.534;-73.332;2022-07-23T08:20:07;100548.00;;;29.88;27.33
55912;BME280;41823;45.534;-73.332;2022-07-23T08:22:45;100545.39;;;29.94;27.77
55912;BME280;41823;45.534;-73.332;2022-07-23T08:25:15;100551.16;;;29.92;27.55
55912;BME280;41823;45.534;-73.332;2022-07-23T08:27:43;100547.84;;;29.98;27.54
55912;BME280;41823;45.534;-73.332;2022-07-23T08:30:11;100548.54;;;30.15;27.49
55912;BME280;41823;45.534;-73.332;2022-07-23T08:32:57;100555.20;;;30.07;27.30
55912;BME280;41823;45.534;-73.332;2022-07-23T08:35:27;100560.16;;;30.32;25.71
55912;BME280;41823;45.534;-73.332;2022-07-23T08:37:56;100565.96;;;29.65;27.42
55912;BME280;41823;45.534;-73.332;2022-07-23T08:40:27;100568.64;;;30.09;27.57
55912;BME280;41823;45.534;-73.332;2022-07-23T08:42:55;100567.84;;;29.93;26.73
55912;BME280;41823;45.534;-73.332;2022-07-23T08:45:24;100567.43;;;29.86;26.23
55912;BME280;41823;45.534;-73.332;2022-07-23T08:47:54;100570.68;;;30.26;26.12
55912;BME280;41823;45.534;-73.332;2022-07-23T08:50:24;100568.15;;;29.75;27.13
55912;BME280;41823;45.534;-73.332;2022-07-23T08:52:53;100564.82;;;29.63;27.24
55912;BME280;41823;45.534;-73.332;2022-07-23T08:55:22;100570.22;;;29.78;31.66
55912;BME280;41823;45.534;-73.332;2022-07-23T08:57:52;100573.79;;;29.73;26.82
55912;BME280;41823;45.534;-73.332;2022-07-23T09:00:21;100577.10;;;29.92;26.67
55912;BME280;41823;45.534;-73.332;2022-07-23T09:02:50;100571.03;;;29.56;27.27
55912;BME280;41823;45.534;-73.332;2022-07-23T09:05:18;100573.58;;;30.03;27.61
55912;BME280;41823;45.534;-73.332;2022-07-23T09:08:20;100575.98;;;30.25;27.07
55912;BME280;41823;45.534;-73.332;2022-07-23T09:10:51;100578.62;;;30.01;27.26
55912;BME280;41823;45.534;-73.332;2022-07-23T09:13:29;100574.15;;;29.78;27.02
55912;BME280;41823;45.534;-73.332;2022-07-23T09:15:59;100572.84;;;29.99;27.05
55912;BME280;41823;45.534;-73.332;2022-07-23T09:18:33;100578.59;;;29.99;26.53
55912;BME280;41823;45.534;-73.332;2022-07-23T09:21:12;100578.61;;;29.94;27.00
55912;BME280;41823;45.534;-73.332;2022-07-23T09:23:42;100579.15;;;30.12;26.73
55912;BME280;41823;45.534;-73.332;2022-07-23T09:26:23;100587.52;;;30.03;27.27
55912;BME280;41823;45.534;-73.332;2022-07-23T09:28:53;100591.40;;;29.53;27.35
55912;BME280;41823;45.534;-73.332;2022-07-23T09:31:23;100592.89;;;30.18;26.83
55912;BME280;41823;45.534;-73.332;2022-07-23T09:34:01;100582.28;;;29.83;26.57
55912;BME280;41823;45.534;-73.332;2022-07-23T09:36:33;100581.60;;;29.77;25.80
55912;BME280;41823;45.534;-73.332;2022-07-23T09:39:01;100588.76;;;29.87;27.09
55912;BME280;41823;45.534;-73.332;2022-07-23T09:41:35;100598.06;;;30.11;26.68
55912;BME280;41823;45.534;-73.332;2022-07-23T09:44:10;100603.33;;;29.88;27.10
55912;BME280;41823;45.534;-73.332;2022-07-23T09:46:39;100604.64;;;30.30;26.90
55912;BME280;41823;45.534;-73.332;2022-07-23T09:49:13;100611.95;;;30.26;27.43
55912;BME280;41823;45.534;-73.332;2022-07-23T09:51:46;100615.23;;;30.27;27.04
55912;BME280;41823;45.534;-73.332;2022-07-23T09:54:27;100612.32;;;29.89;27.11
55912;BME280;41823;45.534;-73.332;2022-07-23T09:56:55;100613.12;;;29.57;26.89
55912;BME280;41823;45.534;-73.332;2022-07-23T09:59:25;100612.05;;;30.03;27.71
55912;BME280;41823;45.534;-73.332;2022-07-23T10:01:55;100619.19;;;30.04;26.79
55912;BME280;41823;45.534;-73.332;2022-07-23T10:04:24;100621.10;;;29.89;27.05
55912;BME280;41823;45.534;-73.332;2022-07-23T10:06:54;100625.46;;;29.81;27.87
55912;BME280;41823;45.534;-73.332;2022-07-23T10:09:25;100627.60;;;29.85;27.88
55912;BME280;41823;45.534;-73.332;2022-07-23T10:11:57;100622.99;;;29.92;27.56
55912;BME280;41823;45.534;-73.332;2022-07-23T10:14:25;100618.58;;;29.24;28.13
55912;BME280;41823;45.534;-73.332;2022-07-23T10:16:54;100621.01;;;29.83;27.50
55912;BME280;41823;45.534;-73.332;2022-07-23T10:19:22;100628.03;;;29.59;27.74
55912;BME280;41823;45.534;-73.332;2022-07-23T10:21:54;100627.87;;;29.76;28.03
55912;BME280;41823;45.534;-73.332;2022-07-23T10:24:34;100625.26;;;29.97;28.09
55912;BME280;41823;45.534;-73.332;2022-07-23T10:27:16;100624.84;;;29.82;27.95
55912;BME280;41823;45.534;-73.332;2022-07-23T10:29:55;100626.25;;;29.63;28.31
55912;BME280;41823;45.534;-73.332;2022-07-23T10:32:40;100632.20;;;30.09;28.31
55912;BME280;41823;45.534;-73.332;2022-07-23T10:35:21;100633.52;;;29.57;28.84
55912;BME280;41823;45.534;-73.332;2022-07-23T10:37:53;100638.24;;;30.20;27.53
55912;BME280;41823;45.534;-73.332;2022-07-23T10:40:23;100646.78;;;29.97;27.62
55912;BME280;41823;45.534;-73.332;2022-07-23T10:42:52;100648.63;;;30.00;27.87
55912;BME280;41823;45.534;-73.332;2022-07-23T10:45:26;100642.95;;;29.95;28.17
55912;BME280;41823;45.534;-73.332;2022-07-23T10:47:54;100639.92;;;30.35;27.86
55912;BME280;41823;45.534;-73.332;2022-07-23T10:50:26;100640.12;;;29.38;28.92
55912;BME280;41823;45.534;-73.332;2022-07-23T10:53:15;100646.47;;;29.93;28.61
55912;BME280;41823;45.534;-73.332;2022-07-23T10:55:46;100645.47;;;29.98;28.69
55912;BME280;41823;45.534;-73.332;2022-07-23T10:58:20;100641.45;;;30.10;28.51
55912;BME280;41823;45.534;-73.332;2022-07-23T11:00:49;100640.37;;;30.10;28.99
55912;BME280;41823;45.534;-73.332;2022-07-23T11:03:35;100640.26;;;29.92;28.89
55912;BME280;41823;45.534;-73.332;2022-07-23T11:06:03;100645.28;;;29.96;28.64
55912;BME280;41823;45.534;-73.332;2022-07-23T11:08:32;100648.27;;;29.93;29.29
55912;BME280;41823;45.534;-73.332;2022-07-23T11:11:16;100646.72;;;30.06;28.98
55912;BME280;41823;45.534;-73.332;2022-07-23T11:13:50;100645.95;;;29.95;28.71
55912;BME280;41823;45.534;-73.332;2022-07-23T11:16:22;100639.84;;;29.95;29.10
55912;BME280;41823;45.534;-73.332;2022-07-23T11:19:07;100631.84;;;30.26;28.34
55912;BME280;41823;45.534;-73.332;2022-07-23T11:21:51;100630.72;;;29.96;29.34
55912;BME280;41823;45.534;-73.332;2022-07-23T11:24:20;100631.65;;;30.09;28.99
55912;BME280;41823;45.534;-73.332;2022-07-23T11:26:56;100632.04;;;30.01;29.66
55912;BME280;41823;45.534;-73.332;2022-07-23T11:29:42;100629.00;;;29.81;28.52
55912;BME280;41823;45.534;-73.332;2022-07-23T11:32:22;100634.90;;;29.63;29.12
55912;BME280;41823;45.534;-73.332;2022-07-23T11:34:52;100636.75;;;29.52;29.93
55912;BME280;41823;45.534;-73.332;2022-07-23T11:37:31;100636.10;;;30.19;28.93
55912;BME280;41823;45.534;-73.332;2022-07-23T11:40:00;100643.74;;;30.26;29.82
55912;BME280;41823;45.534;-73.332;2022-07-23T11:42:28;100643.64;;;30.08;29.85
55912;BME280;41823;45.534;-73.332;2022-07-23T11:44:56;100639.52;;;30.37;29.23
55912;BME280;41823;45.534;-73.332;2022-07-23T11:47:25;100652.34;;;30.22;30.03
55912;BME280;41823;45.534;-73.332;2022-07-23T11:49:55;100656.03;;;29.91;29.93
55912;BME280;41823;45.534;-73.332;2022-07-23T11:52:24;100644.47;;;30.42;29.89
55912;BME280;41823;45.534;-73.332;2022-07-23T11:54:54;100650.46;;;30.41;29.57
55912;BME280;41823;45.534;-73.332;2022-07-23T11:57:25;100642.26;;;30.80;29.52
55912;BME280;41823;45.534;-73.332;2022-07-23T11:59:57;100645.84;;;30.28;29.70
55912;BME280;41823;45.534;-73.332;2022-07-23T12:02:26;100642.61;;;30.10;29.95
55912;BME280;41823;45.534;-73.332;2022-07-23T12:04:54;100642.77;;;30.50;29.86
55912;BME280;41823;45.534;-73.332;2022-07-23T12:07:27;100648.94;;;30.26;29.91
55912;BME280;41823;45.534;-73.332;2022-07-23T12:09:57;100657.76;;;30.30;29.19
55912;BME280;41823;45.534;-73.332;2022-07-23T12:12:26;100659.01;;;30.65;29.88
55912;BME280;41823;45.534;-73.332;2022-07-23T12:14:56;100663.38;;;30.29;30.08
55912;BME280;41823;45.534;-73.332;2022-07-23T12:17:30;100666.89;;;30.60;29.70
55912;BME280;41823;45.534;-73.332;2022-07-23T12:19:59;100672.36;;;30.44;30.21
55912;BME280;41823;45.534;-73.332;2022-07-23T12:22:37;100668.59;;;30.37;30.08
55912;BME280;41823;45.534;-73.332;2022-07-23T12:25:08;100669.87;;;30.37;30.25
55912;BME280;41823;45.534;-73.332;2022-07-23T12:27:37;100664.86;;;30.54;30.44
55912;BME280;41823;45.534;-73.332;2022-07-23T12:30:24;100661.10;;;30.95;29.35
55912;BME280;41823;45.534;-73.332;2022-07-23T12:32:53;100660.24;;;30.90;29.15
55912;BME280;41823;45.534;-73.332;2022-07-23T12:35:22;100658.93;;;30.72;29.76
55912;BME280;41823;45.534;-73.332;2022-07-23T12:37:51;100656.32;;;30.63;29.30
55912;BME280;41823;45.534;-73.332;2022-07-23T12:40:23;100646.43;;;31.01;29.41
55912;BME280;41823;45.534;-73.332;2022-07-23T12:42:53;100652.34;;;31.24;29.72
55912;BME280;41823;45.534;-73.332;2022-07-23T12:45:21;100653.93;;;30.87;30.00
55912;BME280;41823;45.534;-73.332;2022-07-23T12:47:54;100650.66;;;30.92;29.45
55912;BME280;41823;45.534;-73.332;2022-07-23T12:50:41;100657.81;;;31.07;29.08
55912;BME280;41823;45.534;-73.332;2022-07-23T12:53:12;100653.36;;;30.94;29.59
55912;BME280;41823;45.534;-73.332;2022-07-23T12:55:43;100652.89;;;30.96;29.07
55912;BME280;41823;45.534;-73.332;2022-07-23T12:58:14;100654.42;;;31.11;29.36
55912;BME280;41823;45.534;-73.332;2022-07-23T13:00:54;100646.02;;;30.98;29.90
55912;BME280;41823;45.534;-73.332;2022-07-23T13:03:25;100644.81;;;31.22;29.59
55912;BME280;41823;45.534;-73.332;2022-07-23T13:05:54;100649.14;;;31.37;29.00
55912;BME280;41823;45.534;-73.332;2022-07-23T13:08:23;100653.46;;;31.20;29.60
55912;BME280;41823;45.534;-73.332;2022-07-23T13:10:52;100637.87;;;31.37;29.38
55912;BME280;41823;45.534;-73.332;2022-07-23T13:13:22;100640.55;;;31.17;29.30
55912;BME280;41823;45.534;-73.332;2022-07-23T13:15:52;100643.66;;;31.42;29.36
55912;BME280;41823;45.534;-73.332;2022-07-23T13:18:20;100634.26;;;31.36;29.19
55912;BME280;41823;45.534;-73.332;2022-07-23T13:20:49;100636.13;;;31.55;29.31
55912;BME280;41823;45.534;-73.332;2022-07-23T13:23:18;100632.34;;;31.53;29.14
55912;BME280;41823;45.534;-73.332;2022-07-23T13:25:46;100632.97;;;31.27;28.85
55912;BME280;41823;45.534;-73.332;2022-07-23T13:28:16;100636.90;;;31.79;28.91
55912;BME280;41823;45.534;-73.332;2022-07-23T13:30:45;100634.19;;;31.38;28.94
55912;BME280;41823;45.534;-73.332;2022-07-23T13:33:13;100631.04;;;31.46;29.32
55912;BME280;41823;45.534;-73.332;2022-07-23T13:35:40;100633.66;;;31.64;29.05
55912;BME280;41823;45.534;-73.332;2022-07-23T13:38:08;100634.53;;;31.60;29.16
55912;BME280;41823;45.534;-73.332;2022-07-23T13:40:37;100628.85;;;31.90;29.60
55912;BME280;41823;45.534;-73.332;2022-07-23T13:43:06;100621.36;;;31.58;29.23
55912;BME280;41823;45.534;-73.332;2022-07-23T13:45:34;100620.06;;;31.74;29.03
55912;BME280;41823;45.534;-73.332;2022-07-23T13:48:02;100610.17;;;31.90;28.94
55912;BME280;41823;45.534;-73.332;2022-07-23T13:50:30;100613.59;;;31.93;28.12
55912;BME280;41823;45.534;-73.332;2022-07-23T13:53:01;100612.22;;;31.76;28.77
55912;BME280;41823;45.534;-73.332;2022-07-23T13:55:29;100608.44;;;31.73;28.18
55912;BME280;41823;45.534;-73.332;2022-07-23T13:57:57;100609.36;;;31.78;28.84
55912;BME280;41823;45.534;-73.332;2022-07-23T14:00:24;100604.01;;;31.87;28.44
55912;BME280;41823;45.534;-73.332;2022-07-23T14:02:52;100605.75;;;31.94;28.36
55912;BME280;41823;45.534;-73.332;2022-07-23T14:05:20;100610.11;;;32.22;27.98
55912;BME280;41823;45.534;-73.332;2022-07-23T14:07:48;100603.86;;;32.03;27.92
55912;BME280;41823;45.534;-73.332;2022-07-23T14:10:17;100609.57;;;31.72;28.33
55912;BME280;41823;45.534;-73.332;2022-07-23T14:12:46;100603.15;;;31.99;28.57
55912;BME280;41823;45.534;-73.332;2022-07-23T14:15:15;100595.24;;;31.86;28.30
55912;BME280;41823;45.534;-73.332;2022-07-23T14:17:44;100591.34;;;31.77;28.04
55912;BME280;41823;45.534;-73.332;2022-07-23T14:20:14;100593.85;;;31.83;28.46
55912;BME280;41823;45.534;-73.332;2022-07-23T14:22:42;100592.76;;;31.84;28.31
55912;BME280;41823;45.534;-73.332;2022-07-23T14:25:11;100585.22;;;31.55;27.64
55912;BME280;41823;45.534;-73.332;2022-07-23T14:27:39;100589.19;;;31.97;27.97
55912;BME280;41823;45.534;-73.332;2022-07-23T14:30:09;100592.16;;;31.01;28.03
55912;BME280;41823;45.534;-73.332;2022-07-23T14:32:37;100598.78;;;31.94;27.67
55912;BME280;41823;45.534;-73.332;2022-07-23T14:35:06;100596.73;;;31.31;28.49
55912;BME280;41823;45.534;-73.332;2022-07-23T14:37:34;100597.41;;;31.46;28.06
55912;BME280;41823;45.534;-73.332;2022-07-23T14:40:02;100593.83;;;31.88;27.98
55912;BME280;41823;45.534;-73.332;2022-07-23T14:42:30;100592.34;;;32.12;27.85
55912;BME280;41823;45.534;-73.332;2022-07-23T14:44:57;100594.07;;;31.68;27.81
55912;BME280;41823;45.534;-73.332;2022-07-23T14:47:25;100603.76;;;31.60;27.75
55912;BME280;41823;45.534;-73.332;2022-07-23T14:49:53;100613.20;;;31.52;27.67
55912;BME280;41823;45.534;-73.332;2022-07-23T14:52:21;100606.50;;;31.60;27.82
55912;BME280;41823;45.534;-73.332;2022-07-23T14:54:49;100598.06;;;32.03;28.07
55912;BME280;41823;45.534;-73.332;2022-07-23T14:57:17;100597.83;;;31.73;28.21
55912;BME280;41823;45.534;-73.332;2022-07-23T14:59:45;100603.21;;;31.68;28.73
55912;BME280;41823;45.534;-73.332;2022-07-23T15:02:12;100591.42;;;31.65;28.36
55912;BME280;41823;45.534;-73.332;2022-07-23T15:04:40;100591.31;;;31.81;27.88
55912;BME280;41823;45.534;-73.332;2022-07-23T15:07:08;100589.80;;;31.84;28.32
55912;BME280;41823;45.534;-73.332;2022-07-23T15:09:36;100588.88;;;31.68;28.15
55912;BME280;41823;45.534;-73.332;2022-07-23T15:12:05;100595.20;;;31.73;28.72
55912;BME280;41823;45.534;-73.332;2022-07-23T15:14:33;100592.31;;;31.66;28.01
55912;BME280;41823;45.534;-73.332;2022-07-23T15:17:01;100594.68;;;31.83;28.22
55912;BME280;41823;45.534;-73.332;2022-07-23T15:19:29;100586.79;;;31.78;28.30
55912;BME280;41823;45.534;-73.332;2022-07-23T15:21:57;100597.43;;;31.69;28.79
55912;BME280;41823;45.534;-73.332;2022-07-23T15:24:25;100599.15;;;31.65;28.89
55912;BME280;41823;45.534;-73.332;2022-07-23T15:26:52;100600.63;;;32.07;28.69
55912;BME280;41823;45.534;-73.332;2022-07-23T15:29:20;100602.88;;;32.08;28.49
55912;BME280;41823;45.534;-73.332;2022-07-23T15:31:48;100607.82;;;32.16;28.48
55912;BME280;41823;45.534;-73.332;2022-07-23T15:34:16;100604.17;;;31.53;28.38
55912;BME280;41823;45.534;-73.332;2022-07-23T15:36:44;100608.22;;;31.45;28.81
55912;BME280;41823;45.534;-73.332;2022-07-23T15:39:12;100612.35;;;31.62;28.59
55912;BME280;41823;45.534;-73.332;2022-07-23T15:41:39;100614.80;;;31.77;28.25